Eagle Boston — 9VHI — position and weather

sailwx.info

Track history (hours):
 
Tides and Currents Weather Stations Pressure Air Temp Water Temp Dewpoint Dewpoint Depression Visibility Wind Speed Wind Dir Waves Ship Positions

Eagle Boston

Last reported at 2016-May-01 13:17 UTC. Time now 2016-May-04 04:11 UTC.
Position N 29°35' W 093°17'.

Length 254 m; draft 8.8 m.

Type: Tanker. MMSI: 564004000.

Date/timePositionNaut miles runAvg speedWind from/ knotsBaromVisibWave heightAir tempDewpointWater temp
2016-May-01 13:17N 29°35' W 093°17'710.2
2016-May-01 12:33N 29°42' W 093°20'1010.2
2016-May-01 11:33N 29°52' W 093°21'9 9.0
2016-May-01 10:33N 30°01' W 093°20'8 7.7
2016-May-01 09:33N 30°08' W 093°20'2 2.4
2016-May-01 08:33N 30°11' W 093°19'2 1.6
2016-May-01 07:33N 30°09' W 093°20'0 0.0
2016-May-01 06:33N 30°09' W 093°20'0 0.0
2016-May-01 05:33N 30°09' W 093°20'0 0.0
2016-May-01 04:33N 30°09' W 093°20'0 0.0
2016-May-01 03:33N 30°09' W 093°20'0 0.0
2016-May-01 02:33N 30°09' W 093°20'0 0.0
2016-May-01 01:33N 30°09' W 093°20'0 0.0
2016-Apr-30 13:33N 30°09' W 093°20'0 0.0
2016-Apr-30 12:33N 30°09' W 093°20'0 0.0
2016-Apr-30 11:33N 30°09' W 093°20'0 0.0
2016-Apr-30 10:33N 30°09' W 093°20'0 0.0
2016-Apr-30 09:27N 30°09' W 093°20'0 0.0
2016-Apr-30 07:33N 30°09' W 093°20'0 0.0
2016-Apr-30 06:33N 30°09' W 093°20'2 2.1
2016-Apr-30 05:32N 30°07' W 093°20'5 5.5
2016-Apr-30 04:32N 30°02' W 093°20'5 5.2
2016-Apr-30 03:33N 29°57' W 093°20'7 6.6
2016-Apr-30 02:34N 29°50' W 093°21'7 6.6
2016-Apr-30 01:30N 29°43' W 093°20'8 8.4
2016-Apr-30 00:32N 29°35' W 093°17'9 9.1
2016-Apr-29 23:30N 29°27' W 093°13'9 9.1
2016-Apr-29 22:28N 29°17' W 093°13'2 1.9
2016-Apr-29 21:32N 29°16' W 093°13'3 2.8
2016-Apr-29 20:30N 29°13' W 093°14'2 1.6
2016-Apr-29 19:24N 29°11' W 093°14'11 2.2
2016-Apr-29 14:29N 29°01' W 093°17'4 1.6
2016-Apr-29 12:09N 29°01' W 093°13'5 2.9
2016-Apr-29 10:32N 28°58' W 093°16'10 4.8
2016-Apr-29 08:32N 28°58' W 093°27'0 0.3
2016-Apr-29 07:09N 28°58' W 093°27'4 1.0
2016-Apr-29 03:30N 28°58' W 093°22'1 1.0
2016-Apr-29 02:13N 28°58' W 093°21'1 0.9
2016-Apr-29 01:32N 28°58' W 093°20'1 1.0
2016-Apr-29 00:25N 28°58' W 093°19'3 1.1
2016-Apr-28 22:07N 28°58' W 093°16'0 0.0
2016-Apr-28 02:19N 28°58' W 093°16'0 0.0
2016-Apr-27 21:22N 28°58' W 093°16'0 0.1
2016-Apr-27 20:26N 28°58' W 093°16'1 0.8
2016-Apr-27 19:33N 28°58' W 093°17'8 6.1
2016-Apr-27 18:18N 29°06' W 093°14'7 8.4
2016-Apr-27 17:29N 28°59' W 093°18'78 7.1
2016-Apr-27 06:31N 28°38' W 094°43'0 0.0
2016-Apr-27 05:33N 28°38' W 094°43'0 0.1
2016-Apr-27 04:32N 28°38' W 094°43'0 0.0
2016-Apr-26 21:31N 28°38' W 094°43'0 0.0
2016-Apr-26 20:23N 28°38' W 094°43'0 0.0
2016-Apr-26 19:19N 28°38' W 094°43'21 1.2
2016-Apr-26 01:11N 28°55' W 094°29'911.4
2016-Apr-26 00:24N 29°04' W 094°33'19 2.0
2016-Apr-25 14:32N 29°21' W 094°43'28 4.6
2016-Apr-25 08:31N 29°44' W 095°01'0 0.0
2016-Apr-25 07:28N 29°44' W 095°01'0 0.0
2016-Apr-25 06:28N 29°44' W 095°01'0 0.0
2016-Apr-25 05:31N 29°44' W 095°01'0 0.0
2016-Apr-25 04:19N 29°44' W 095°01'0 0.0
2016-Apr-25 03:25N 29°44' W 095°01'0 0.0
2016-Apr-25 02:22N 29°44' W 095°01'0 0.0
2016-Apr-25 01:28N 29°44' W 095°01'0 0.0
2016-Apr-25 00:25N 29°44' W 095°01'0 0.0
2016-Apr-24 23:28N 29°44' W 095°01'0 0.0
2016-Apr-24 22:28N 29°44' W 095°01'0 0.0
2016-Apr-24 21:22N 29°44' W 095°01'0 0.0
2016-Apr-24 20:28N 29°44' W 095°01'0 0.0
2016-Apr-24 19:31N 29°44' W 095°01'0 0.0
2016-Apr-24 17:34N 29°44' W 095°01'0 0.0
2016-Apr-24 16:25N 29°44' W 095°01'0 0.0
2016-Apr-24 15:31N 29°44' W 095°01'0 0.0
2016-Apr-24 14:31N 29°44' W 095°01'0 0.0
2016-Apr-24 13:31N 29°44' W 095°01'0 0.0
2016-Apr-24 12:28N 29°44' W 095°01'0 0.0
2016-Apr-24 11:31N 29°44' W 095°01'0 0.0
2016-Apr-24 10:28N 29°44' W 095°01'0 0.0
2016-Apr-24 09:28N 29°44' W 095°01'0 0.0
2016-Apr-24 07:22N 29°44' W 095°01'0 0.0
2016-Apr-24 06:22N 29°44' W 095°01'0 0.0
2016-Apr-24 05:28N 29°44' W 095°01'0 0.0
2016-Apr-24 04:28N 29°44' W 095°01'0 0.0
2016-Apr-24 03:22N 29°44' W 095°01'0 0.0
2016-Apr-24 02:28N 29°44' W 095°01'0 0.0
2016-Apr-24 01:22N 29°44' W 095°01'0 0.0
2016-Apr-24 00:10N 29°44' W 095°01'0 0.0
2016-Apr-23 23:10N 29°44' W 095°01'0 0.0
2016-Apr-23 22:22N 29°44' W 095°01'0 0.0
2016-Apr-23 21:28N 29°44' W 095°01'0 0.0
2016-Apr-23 17:22N 29°44' W 095°01'0 0.0
2016-Apr-23 16:19N 29°44' W 095°01'0 0.3
2016-Apr-23 15:33N 29°44' W 095°01'6 6.3
2016-Apr-23 14:33N 29°38' W 094°58'1010.1
2016-Apr-23 13:33N 29°29' W 094°52'1110.5
2016-Apr-23 12:33N 29°21' W 094°45'1010.0
2016-Apr-23 11:33N 29°17' W 094°35'5 5.2
2016-Apr-23 10:33N 29°13' W 094°30'5 4.5
2016-Apr-23 09:33N 29°10' W 094°27'3 2.4
2016-Apr-23 08:20N 29°08' W 094°30'0 0.1
2016-Apr-23 07:29N 29°08' W 094°30'  
Track history (hours):
 
Tides and Currents Weather Stations Pressure Air Temp Water Temp Dewpoint Dewpoint Depression Visibility Wind Speed Wind Dir Waves Ship Positions

Eagle Boston

Last reported at 2016-May-01 13:17 UTC. Time now 2016-May-04 04:11 UTC.
Position N 29°35' W 093°17'.

Length 254 m; draft 8.8 m.

Type: Tanker. MMSI: 564004000.

Date/timePositionNaut miles runAvg speedWind from/ knotsBaromVisibWave heightAir tempDewpointWater temp
2016-May-01 13:17N 29°35' W 093°17'710.2
2016-May-01 12:33N 29°42' W 093°20'1010.2
2016-May-01 11:33N 29°52' W 093°21'9 9.0
2016-May-01 10:33N 30°01' W 093°20'8 7.7
2016-May-01 09:33N 30°08' W 093°20'2 2.4
2016-May-01 08:33N 30°11' W 093°19'2 1.6
2016-May-01 07:33N 30°09' W 093°20'0 0.0
2016-May-01 06:33N 30°09' W 093°20'0 0.0
2016-May-01 05:33N 30°09' W 093°20'0 0.0
2016-May-01 04:33N 30°09' W 093°20'0 0.0
2016-May-01 03:33N 30°09' W 093°20'0 0.0
2016-May-01 02:33N 30°09' W 093°20'0 0.0
2016-May-01 01:33N 30°09' W 093°20'0 0.0
2016-Apr-30 13:33N 30°09' W 093°20'0 0.0
2016-Apr-30 12:33N 30°09' W 093°20'0 0.0
2016-Apr-30 11:33N 30°09' W 093°20'0 0.0
2016-Apr-30 10:33N 30°09' W 093°20'0 0.0
2016-Apr-30 09:27N 30°09' W 093°20'0 0.0
2016-Apr-30 07:33N 30°09' W 093°20'0 0.0
2016-Apr-30 06:33N 30°09' W 093°20'2 2.1
2016-Apr-30 05:32N 30°07' W 093°20'5 5.5
2016-Apr-30 04:32N 30°02' W 093°20'5 5.2
2016-Apr-30 03:33N 29°57' W 093°20'7 6.6
2016-Apr-30 02:34N 29°50' W 093°21'7 6.6
2016-Apr-30 01:30N 29°43' W 093°20'8 8.4
2016-Apr-30 00:32N 29°35' W 093°17'9 9.1
2016-Apr-29 23:30N 29°27' W 093°13'9 9.1
2016-Apr-29 22:28N 29°17' W 093°13'2 1.9
2016-Apr-29 21:32N 29°16' W 093°13'3 2.8
2016-Apr-29 20:30N 29°13' W 093°14'2 1.6
2016-Apr-29 19:24N 29°11' W 093°14'11 2.2
2016-Apr-29 14:29N 29°01' W 093°17'4 1.6
2016-Apr-29 12:09N 29°01' W 093°13'5 2.9
2016-Apr-29 10:32N 28°58' W 093°16'10 4.8
2016-Apr-29 08:32N 28°58' W 093°27'0 0.3
2016-Apr-29 07:09N 28°58' W 093°27'4 1.0
2016-Apr-29 03:30N 28°58' W 093°22'1 1.0
2016-Apr-29 02:13N 28°58' W 093°21'1 0.9
2016-Apr-29 01:32N 28°58' W 093°20'1 1.0
2016-Apr-29 00:25N 28°58' W 093°19'3 1.1
2016-Apr-28 22:07N 28°58' W 093°16'0 0.0
2016-Apr-28 02:19N 28°58' W 093°16'0 0.0
2016-Apr-27 21:22N 28°58' W 093°16'0 0.1
2016-Apr-27 20:26N 28°58' W 093°16'1 0.8
2016-Apr-27 19:33N 28°58' W 093°17'8 6.1
2016-Apr-27 18:18N 29°06' W 093°14'7 8.4
2016-Apr-27 17:29N 28°59' W 093°18'78 7.1
2016-Apr-27 06:31N 28°38' W 094°43'0 0.0
2016-Apr-27 05:33N 28°38' W 094°43'0 0.1
2016-Apr-27 04:32N 28°38' W 094°43'0 0.0
2016-Apr-26 21:31N 28°38' W 094°43'0 0.0
2016-Apr-26 20:23N 28°38' W 094°43'0 0.0
2016-Apr-26 19:19N 28°38' W 094°43'21 1.2
2016-Apr-26 01:11N 28°55' W 094°29'911.4
2016-Apr-26 00:24N 29°04' W 094°33'19 2.0
2016-Apr-25 14:32N 29°21' W 094°43'28 4.6
2016-Apr-25 08:31N 29°44' W 095°01'0 0.0
2016-Apr-25 07:28N 29°44' W 095°01'0 0.0
2016-Apr-25 06:28N 29°44' W 095°01'0 0.0
2016-Apr-25 05:31N 29°44' W 095°01'0 0.0
2016-Apr-25 04:19N 29°44' W 095°01'0 0.0
2016-Apr-25 03:25N 29°44' W 095°01'0 0.0
2016-Apr-25 02:22N 29°44' W 095°01'0 0.0
2016-Apr-25 01:28N 29°44' W 095°01'0 0.0
2016-Apr-25 00:25N 29°44' W 095°01'0 0.0
2016-Apr-24 23:28N 29°44' W 095°01'0 0.0
2016-Apr-24 22:28N 29°44' W 095°01'0 0.0
2016-Apr-24 21:22N 29°44' W 095°01'0 0.0
2016-Apr-24 20:28N 29°44' W 095°01'0 0.0
2016-Apr-24 19:31N 29°44' W 095°01'0 0.0
2016-Apr-24 17:34N 29°44' W 095°01'0 0.0
2016-Apr-24 16:25N 29°44' W 095°01'0 0.0
2016-Apr-24 15:31N 29°44' W 095°01'0 0.0
2016-Apr-24 14:31N 29°44' W 095°01'0 0.0
2016-Apr-24 13:31N 29°44' W 095°01'0 0.0
2016-Apr-24 12:28N 29°44' W 095°01'0 0.0
2016-Apr-24 11:31N 29°44' W 095°01'0 0.0
2016-Apr-24 10:28N 29°44' W 095°01'0 0.0
2016-Apr-24 09:28N 29°44' W 095°01'0 0.0
2016-Apr-24 07:22N 29°44' W 095°01'0 0.0
2016-Apr-24 06:22N 29°44' W 095°01'0 0.0
2016-Apr-24 05:28N 29°44' W 095°01'0 0.0
2016-Apr-24 04:28N 29°44' W 095°01'0 0.0
2016-Apr-24 03:22N 29°44' W 095°01'0 0.0
2016-Apr-24 02:28N 29°44' W 095°01'0 0.0
2016-Apr-24 01:22N 29°44' W 095°01'0 0.0
2016-Apr-24 00:10N 29°44' W 095°01'0 0.0
2016-Apr-23 23:10N 29°44' W 095°01'0 0.0
2016-Apr-23 22:22N 29°44' W 095°01'0 0.0
2016-Apr-23 21:28N 29°44' W 095°01'0 0.0
2016-Apr-23 17:22N 29°44' W 095°01'0 0.0
2016-Apr-23 16:19N 29°44' W 095°01'0 0.3
2016-Apr-23 15:33N 29°44' W 095°01'6 6.3
2016-Apr-23 14:33N 29°38' W 094°58'1010.1
2016-Apr-23 13:33N 29°29' W 094°52'1110.5
2016-Apr-23 12:33N 29°21' W 094°45'1010.0
2016-Apr-23 11:33N 29°17' W 094°35'5 5.2
2016-Apr-23 10:33N 29°13' W 094°30'5 4.5
2016-Apr-23 09:33N 29°10' W 094°27'3 2.4
2016-Apr-23 08:20N 29°08' W 094°30'0 0.1
2016-Apr-23 07:29N 29°08' W 094°30'  

Dump ship's entire track history